Time;durP1;ratioP1;P1;durP2;ratioP2;P2;SDS_P1;SDS_P2;PMS_P1;PMS_P2;Temp;Humidity;BMP_temperature;BMP_pressure;BME280_temperature;BME280_humidity;BME280_pressure;Samples;Min_cycle;Max_cycle;Signal;HPM_P1;HPM_P2
2022/07/21 00:00:03;;;;;;;19.65;15.02;;;18.80;99.90;;;;;;6220780;23;20066;-79
2022/07/21 00:02:29;;;;;;;18.55;15.68;;;18.80;99.90;;;;;;6218912;23;20019;-79
2022/07/21 00:04:54;;;;;;;18.02;14.48;;;18.80;99.90;;;;;;6194817;23;20087;-79
2022/07/21 00:07:20;;;;;;;18.70;14.30;;;18.80;99.90;;;;;;6193802;23;20016;-79
2022/07/21 00:09:46;;;;;;;20.38;15.35;;;18.70;99.90;;;;;;6220752;23;20400;-80
2022/07/21 00:12:11;;;;;;;17.27;13.80;;;18.70;99.90;;;;;;6196145;23;20472;-80
2022/07/21 00:14:37;;;;;;;21.00;14.93;;;18.70;99.90;;;;;;6220943;23;20047;-79
2022/07/21 00:17:03;;;;;;;18.50;15.35;;;18.70;99.90;;;;;;6195532;23;20008;-79
2022/07/21 00:19:29;;;;;;;21.70;14.93;;;18.70;99.90;;;;;;6221225;23;20008;-79
2022/07/21 00:21:54;;;;;;;20.67;14.85;;;18.70;99.90;;;;;;6221620;23;20023;-80
2022/07/21 00:24:20;;;;;;;19.73;13.93;;;18.70;99.90;;;;;;6197606;23;20050;-80
2022/07/21 00:26:46;;;;;;;19.58;15.35;;;18.70;99.90;;;;;;6221950;23;20012;-80
2022/07/21 00:29:12;;;;;;;22.17;16.38;;;18.70;99.90;;;;;;6195890;23;20012;-79
2022/07/21 00:31:37;;;;;;;21.67;16.70;;;18.70;99.90;;;;;;6196626;23;20016;-79
2022/07/21 00:34:03;;;;;;;19.75;16.35;;;18.70;99.90;;;;;;6196836;23;20016;-79
2022/07/21 00:36:29;;;;;;;20.45;17.15;;;18.70;99.90;;;;;;6197246;23;20008;-79
2022/07/21 00:38:55;;;;;;;25.15;16.80;;;18.70;99.90;;;;;;6222129;23;20027;-80
2022/07/21 00:41:20;;;;;;;26.13;17.63;;;18.70;99.90;;;;;;6196792;23;20012;-80
2022/07/21 00:43:46;;;;;;;23.25;17.38;;;18.70;99.90;;;;;;6221815;23;20433;-80
2022/07/21 00:46:12;;;;;;;22.42;17.05;;;18.70;99.90;;;;;;6196696;23;20026;-81
2022/07/21 00:48:37;;;;;;;25.30;17.25;;;18.70;99.90;;;;;;6196214;23;20058;-80
2022/07/21 00:51:03;;;;;;;23.10;17.05;;;18.70;99.90;;;;;;6220977;23;20479;-79
2022/07/21 00:53:29;;;;;;;20.80;16.25;;;18.70;99.90;;;;;;6217520;23;20016;-79
2022/07/21 00:55:55;;;;;;;28.58;19.52;;;18.70;99.90;;;;;;6220985;23;20016;-79
2022/07/21 00:58:23;;;;;;;30.95;20.02;;;18.70;99.90;;;;;;6193743;23;20086;-80
2022/07/21 01:00:49;;;;;;;26.55;19.00;;;18.70;99.90;;;;;;6217665;23;20510;-79
2022/07/21 01:03:14;;;;;;;25.52;19.92;;;18.70;99.90;;;;;;6217256;23;20012;-79
2022/07/21 01:05:40;;;;;;;38.00;22.60;;;18.70;99.90;;;;;;6217453;23;20321;-79
2022/07/21 01:08:06;;;;;;;24.42;19.77;;;18.70;99.90;;;;;;6217287;23;20297;-79
2022/07/21 01:10:32;;;;;;;32.10;21.88;;;18.70;99.90;;;;;;6217484;23;20016;-78
2022/07/21 01:13:00;;;;;;;34.45;23.95;;;18.70;99.90;;;;;;6216579;23;20008;-79
2022/07/21 01:15:26;;;;;;;30.98;23.38;;;18.70;99.90;;;;;;6192165;23;20019;-79
2022/07/21 01:17:52;;;;;;;50.08;24.77;;;18.70;99.90;;;;;;6217272;22;20083;-79
2022/07/21 01:20:21;;;;;;;32.15;23.13;;;18.70;99.90;;;;;;6217510;23;20083;-79
2022/07/21 01:22:49;;;;;;;32.47;24.65;;;18.70;99.90;;;;;;6217354;23;20314;-79
2022/07/21 01:25:16;;;;;;;37.58;24.65;;;18.70;99.90;;;;;;6216412;23;20047;-79
2022/07/21 01:27:41;;;;;;;33.85;23.60;;;18.70;99.90;;;;;;6216896;22;20012;-79
2022/07/21 01:30:08;;;;;;;47.67;25.23;;;18.70;99.90;;;;;;6216892;23;20091;-80
2022/07/21 01:32:35;;;;;;;47.53;26.15;;;18.70;99.90;;;;;;6191894;23;20008;-79
2022/07/21 01:35:04;;;;;;;32.45;25.67;;;18.70;99.90;;;;;;6217350;23;20460;-79
2022/07/21 01:37:31;;;;;;;32.50;25.40;;;18.70;99.90;;;;;;6192301;23;20016;-79
2022/07/21 01:42:40;;;;;;;33.10;24.00;;;18.70;99.90;;;;;;6216501;23;20023;-78
2022/07/21 01:45:07;;;;;;;45.90;27.17;;;18.70;99.90;;;;;;6216436;23;20013;-78
2022/07/21 01:47:34;;;;;;;36.13;27.40;;;18.70;99.90;;;;;;6192010;23;20345;-79
2022/07/21 01:50:00;;;;;;;37.00;27.25;;;18.70;99.90;;;;;;6217576;23;20005;-79
2022/07/21 01:52:26;;;;;;;35.72;25.60;;;18.70;99.90;;;;;;6216970;23;20453;-79
2022/07/21 01:54:51;;;;;;;47.35;27.38;;;18.70;99.90;;;;;;6216767;23;20083;-79
2022/07/21 01:57:17;;;;;;;34.95;25.65;;;18.70;99.90;;;;;;6192241;23;20012;-78
2022/07/21 01:59:43;;;;;;;38.33;24.35;;;18.70;99.90;;;;;;6190751;23;20015;-78
2022/07/21 02:02:09;;;;;;;36.67;27.35;;;18.70;99.90;;;;;;6216769;23;20008;-78
2022/07/21 02:04:35;;;;;;;47.90;26.80;;;18.70;99.90;;;;;;6216936;23;20008;-79
2022/07/21 02:07:02;;;;;;;56.80;28.92;;;18.70;99.90;;;;;;6217245;23;20005;-79
2022/07/21 02:09:28;;;;;;;49.53;28.55;;;18.70;99.90;;;;;;6191142;23;20385;-78
2022/07/21 02:11:53;;;;;;;47.92;29.67;;;18.70;99.90;;;;;;6191792;23;20019;-78
2022/07/21 02:14:19;;;;;;;40.55;26.98;;;18.70;99.90;;;;;;6216872;23;20175;-79
2022/07/21 02:16:45;;;;;;;43.40;29.08;;;18.70;99.90;;;;;;6217128;23;20012;-79
2022/07/21 02:19:11;;;;;;;73.07;31.83;;;18.70;99.90;;;;;;6218613;23;20051;-79
2022/07/21 02:21:36;;;;;;;51.38;28.20;;;18.70;99.90;;;;;;6220461;23;20087;-80
2022/07/21 02:24:02;;;;;;;59.53;30.08;;;18.70;99.90;;;;;;6219023;23;20008;-79
2022/07/21 02:26:28;;;;;;;65.88;29.58;;;18.70;99.90;;;;;;6194825;23;20039;-80
2022/07/21 02:28:54;;;;;;;70.10;30.60;;;18.70;99.90;;;;;;6195928;23;20054;-80
2022/07/21 02:31:19;;;;;;;39.60;29.05;;;18.70;99.90;;;;;;6220751;23;20015;-81
2022/07/21 02:33:45;;;;;;;66.35;28.00;;;18.70;99.90;;;;;;6195229;23;20140;-79
2022/07/21 02:36:11;;;;;;;74.60;30.83;;;18.70;99.90;;;;;;6220164;23;20015;-79
2022/07/21 02:38:37;;;;;;;41.47;29.63;;;18.70;99.90;;;;;;6195576;23;20514;-81
2022/07/21 02:41:03;;;;;;;54.25;31.98;;;18.70;99.90;;;;;;6195621;23;20091;-80
2022/07/21 02:43:29;;;;;;;45.90;29.90;;;18.70;99.90;;;;;;6220061;23;20039;-79
2022/07/21 02:45:54;;;;;;;44.80;32.72;;;18.70;99.90;;;;;;6221350;23;20018;-79
2022/07/21 02:48:20;;;;;;;49.80;32.88;;;18.70;99.90;;;;;;6195042;23;20515;-80
2022/07/21 02:50:45;;;;;;;55.90;33.65;;;18.70;99.90;;;;;;6196148;23;20019;-80
2022/07/21 02:53:22;;;;;;;48.58;32.83;;;18.70;99.90;;;;;;6220626;23;20008;-80
2022/07/21 02:55:49;;;;;;;59.53;33.55;;;18.70;99.90;;;;;;6196087;23;20020;-80
2022/07/21 02:58:20;;;;;;;42.95;32.28;;;18.70;99.90;;;;;;6195940;23;20018;-79
2022/07/21 03:00:50;;;;;;;50.08;34.15;;;18.70;99.90;;;;;;6219789;23;20091;-80
2022/07/21 03:03:16;;;;;;;44.65;34.28;;;18.70;99.90;;;;;;6220416;23;20058;-80
2022/07/21 03:05:42;;;;;;;45.83;33.17;;;18.70;99.90;;;;;;6193597;23;20019;-79
2022/07/21 03:08:09;;;;;;;42.47;33.70;;;18.60;99.90;;;;;;6193147;23;20008;-78
2022/07/21 03:10:36;;;;;;;45.38;32.42;;;18.70;99.90;;;;;;6193411;23;20024;-79
2022/07/21 03:13:02;;;;;;;58.03;32.55;;;18.60;99.90;;;;;;6218198;23;20012;-79
2022/07/21 03:15:28;;;;;;;53.70;34.50;;;18.60;99.90;;;;;;6218366;23;20091;-80
2022/07/21 03:17:54;;;;;;;38.55;32.90;;;18.60;99.90;;;;;;6217184;22;20491;-78
2022/07/21 03:20:26;;;;;;;39.92;31.75;;;18.50;99.90;;;;;;6193153;23;20035;-78
2022/07/21 03:22:52;;;;;;;42.22;33.25;;;18.50;99.90;;;;;;6218212;23;20040;-78
2022/07/21 03:25:18;;;;;;;42.38;30.40;;;18.50;99.90;;;;;;6217899;23;20008;-78
2022/07/21 03:27:45;;;;;;;51.50;29.67;;;18.50;99.90;;;;;;6193144;22;20012;-79
2022/07/21 03:30:11;;;;;;;43.30;31.50;;;18.50;99.90;;;;;;6192603;23;20016;-79
2022/07/21 03:32:38;;;;;;;42.47;29.30;;;18.50;99.90;;;;;;6191956;23;20035;-79
2022/07/21 03:35:05;;;;;;;39.35;30.33;;;18.50;99.90;;;;;;6192772;23;20008;-79
2022/07/21 03:37:31;;;;;;;37.90;29.40;;;18.50;99.90;;;;;;6218435;23;20453;-79
2022/07/21 03:39:57;;;;;;;49.33;29.17;;;18.50;99.90;;;;;;6217806;23;20012;-80
2022/07/21 03:42:23;;;;;;;36.65;28.30;;;18.50;99.90;;;;;;6217543;23;20035;-79
2022/07/21 03:44:48;;;;;;;34.10;27.27;;;18.50;99.90;;;;;;6193123;23;20040;-80
2022/07/21 03:47:14;;;;;;;35.25;29.38;;;18.50;99.90;;;;;;6217037;23;20477;-79
2022/07/21 03:49:40;;;;;;;38.30;26.48;;;18.40;99.90;;;;;;6217808;23;20016;-79
2022/07/21 03:52:05;;;;;;;37.33;29.85;;;18.40;99.90;;;;;;6217797;23;20019;-79
2022/07/21 03:54:31;;;;;;;40.22;29.35;;;18.40;99.90;;;;;;6192568;23;20039;-79
2022/07/21 03:56:57;;;;;;;37.15;28.92;;;18.40;99.90;;;;;;6217983;23;20330;-79
2022/07/21 03:59:22;;;;;;;36.40;28.70;;;18.40;99.90;;;;;;6216727;23;20023;-78
2022/07/21 04:01:48;;;;;;;40.33;29.25;;;18.40;99.90;;;;;;6192272;23;20044;-78
2022/07/21 04:04:13;;;;;;;33.38;28.33;;;18.40;99.90;;;;;;6217591;23;20074;-79
2022/07/21 04:06:39;;;;;;;44.75;30.02;;;18.40;99.90;;;;;;6192391;23;20019;-78
2022/07/21 04:09:04;;;;;;;39.50;32.10;;;18.40;99.90;;;;;;6242066;22;20106;-81
2022/07/21 04:11:31;;;;;;;41.78;30.70;;;18.40;99.90;;;;;;6255969;22;20454;-80
2022/07/21 04:13:57;;;;;;;42.80;30.85;;;18.40;99.90;;;;;;6255369;22;20007;-80
2022/07/21 04:16:23;;;;;;;56.08;32.97;;;18.40;99.90;;;;;;6257009;22;20011;-80
2022/07/21 04:18:49;;;;;;;41.20;31.60;;;18.30;99.90;;;;;;6248094;22;20007;-81
2022/07/21 04:21:14;;;;;;;54.95;34.22;;;18.40;99.90;;;;;;6225647;22;20003;-81
2022/07/21 04:23:40;;;;;;;45.00;32.60;;;18.40;99.90;;;;;;6226541;22;20016;-81
2022/07/21 04:26:05;;;;;;;38.47;32.30;;;18.40;99.90;;;;;;6226821;22;20039;-79
2022/07/21 04:28:31;;;;;;;38.20;31.77;;;18.40;99.90;;;;;;6226754;22;20004;-81
2022/07/21 04:30:57;;;;;;;45.22;32.78;;;18.40;99.90;;;;;;6253104;22;20534;-81
2022/07/21 04:33:22;;;;;;;39.50;34.15;;;18.40;99.90;;;;;;6227564;22;20348;-80
2022/07/21 04:35:48;;;;;;;41.85;33.50;;;18.50;99.90;;;;;;6252010;22;20470;-80
2022/07/21 04:38:14;;;;;;;45.00;33.50;;;18.50;99.90;;;;;;6225096;22;20087;-80
2022/07/21 04:40:40;;;;;;;58.10;34.80;;;18.50;99.90;;;;;;6226425;22;20275;-80
2022/07/21 04:43:05;;;;;;;46.78;33.15;;;18.60;99.90;;;;;;6252154;22;20516;-80
2022/07/21 04:45:31;;;;;;;40.40;33.40;;;18.60;99.90;;;;;;6251574;22;20054;-81
2022/07/21 04:47:57;;;;;;;42.22;33.95;;;18.60;99.90;;;;;;6227657;22;20008;-80
2022/07/21 04:50:26;;;;;;;45.58;34.42;;;18.60;99.90;;;;;;6227683;22;20008;-80
2022/07/21 04:52:53;;;;;;;39.83;32.05;;;18.60;99.90;;;;;;6227740;22;20343;-81
2022/07/21 04:55:19;;;;;;;39.88;32.55;;;18.60;99.90;;;;;;6227603;22;20411;-80
2022/07/21 04:57:48;;;;;;;41.75;32.35;;;18.70;99.90;;;;;;6227714;22;20039;-80
2022/07/21 05:00:19;;;;;;;38.80;31.40;;;18.60;99.90;;;;;;6251466;22;20007;-81
2022/07/21 05:02:47;;;;;;;49.42;32.97;;;18.70;99.90;;;;;;6227175;22;20022;-81
2022/07/21 05:05:13;;;;;;;41.42;31.85;;;18.70;99.90;;;;;;6226708;22;20396;-80
2022/07/21 05:07:39;;;;;;;46.83;31.92;;;18.80;99.90;;;;;;6226675;22;20007;-80
2022/07/21 05:10:07;;;;;;;39.47;32.35;;;18.90;99.90;;;;;;6227457;22;20478;-79
2022/07/21 05:12:33;;;;;;;37.45;30.20;;;18.90;99.90;;;;;;6252046;22;20023;-80
2022/07/21 05:14:58;;;;;;;37.33;29.42;;;18.90;99.90;;;;;;6253279;22;20015;-82
2022/07/21 05:17:24;;;;;;;35.22;29.52;;;19.00;99.90;;;;;;6225459;22;20043;-82
2022/07/21 05:19:50;;;;;;;33.20;28.83;;;18.90;99.90;;;;;;6248012;22;20008;-83
2022/07/21 05:22:17;;;;;;;32.80;29.05;;;19.00;99.90;;;;;;6224150;22;20435;-82
2022/07/21 05:24:43;;;;;;;36.45;28.33;;;19.00;99.90;;;;;;6225086;22;20008;-83
2022/07/21 05:27:09;;;;;;;31.85;27.63;;;19.00;99.90;;;;;;6252965;22;20020;-81
2022/07/21 05:29:34;;;;;;;35.75;27.80;;;19.00;99.90;;;;;;6259556;22;20012;-82
2022/07/21 05:32:00;;;;;;;31.92;27.42;;;18.90;99.90;;;;;;6232019;22;20016;-81
2022/07/21 05:34:26;;;;;;;30.52;27.25;;;18.90;99.90;;;;;;6234653;22;20336;-82
2022/07/21 05:36:52;;;;;;;32.75;25.70;;;18.90;99.90;;;;;;6236524;22;20034;-81
2022/07/21 05:39:19;;;;;;;32.75;24.55;;;18.90;99.90;;;;;;6235660;22;20012;-81
2022/07/21 05:41:44;;;;;;;31.33;25.63;;;19.00;99.90;;;;;;6230612;22;20039;-81
2022/07/21 05:44:10;;;;;;;30.65;25.05;;;19.00;99.90;;;;;;6224202;22;20015;-80
2022/07/21 05:46:36;;;;;;;27.17;24.13;;;19.10;99.90;;;;;;6248400;22;20396;-82
2022/07/21 05:49:01;;;;;;;30.83;24.45;;;19.10;99.90;;;;;;6223314;22;20203;-80
2022/07/21 05:51:27;;;;;;;29.63;23.75;;;19.20;99.90;;;;;;6222973;22;20086;-79
2022/07/21 05:53:52;;;;;;;27.35;23.35;;;19.20;99.90;;;;;;6251201;22;20035;-81
2022/07/21 05:56:18;;;;;;;31.35;22.75;;;19.20;99.90;;;;;;6225682;22;20015;-81
2022/07/21 05:58:44;;;;;;;26.13;22.40;;;19.20;99.90;;;;;;6251777;22;20004;-80
2022/07/21 06:01:09;;;;;;;30.60;22.30;;;19.20;99.90;;;;;;6225400;22;20086;-80
2022/07/21 06:03:39;;;;;;;33.45;21.98;;;19.20;99.90;;;;;;6249549;22;20063;-80
2022/07/21 06:06:05;;;;;;;27.67;23.77;;;19.20;99.90;;;;;;6253808;22;20372;-79
2022/07/21 06:08:31;;;;;;;26.63;22.45;;;19.20;99.90;;;;;;6229755;22;20091;-80
2022/07/21 06:10:57;;;;;;;26.02;22.52;;;19.20;99.90;;;;;;6254274;22;20012;-81
2022/07/21 06:13:23;;;;;;;26.23;21.40;;;19.20;99.90;;;;;;6228864;22;20059;-79
2022/07/21 06:15:48;;;;;;;26.77;23.10;;;19.20;99.90;;;;;;6254163;22;20114;-81
2022/07/21 06:18:14;;;;;;;30.13;22.25;;;19.20;99.90;;;;;;6229909;22;20455;-80
2022/07/21 06:20:41;;;;;;;27.30;22.63;;;19.20;99.90;;;;;;6254610;22;20064;-81
2022/07/21 06:23:07;;;;;;;27.73;23.60;;;19.20;99.90;;;;;;6229508;22;20008;-81
2022/07/21 06:25:32;;;;;;;26.67;22.98;;;19.20;99.90;;;;;;6226379;22;20316;-80
2022/07/21 06:27:58;;;;;;;28.02;22.60;;;19.20;99.90;;;;;;6251242;22;20018;-81
2022/07/21 06:30:24;;;;;;;27.77;22.60;;;19.20;99.90;;;;;;6226674;22;20059;-80
2022/07/21 06:32:49;;;;;;;27.45;23.90;;;19.20;99.90;;;;;;6250198;22;20027;-83
2022/07/21 06:35:15;;;;;;;27.20;23.92;;;19.20;99.90;;;;;;6223897;22;20071;-81
2022/07/21 06:37:45;;;;;;;28.35;24.02;;;19.20;99.90;;;;;;6246717;22;20015;-81
2022/07/21 06:40:11;;;;;;;29.00;24.85;;;19.30;99.90;;;;;;6223131;22;20083;-81
2022/07/21 06:42:37;;;;;;;30.88;26.30;;;19.30;99.90;;;;;;6223953;22;20043;-81
2022/07/21 06:45:03;;;;;;;27.17;23.58;;;19.40;99.90;;;;;;6224825;22;20086;-81
2022/07/21 06:47:28;;;;;;;32.42;24.13;;;19.40;99.90;;;;;;6223099;22;20014;-81
2022/07/21 06:49:54;;;;;;;31.35;25.08;;;19.40;99.90;;;;;;6249471;22;20086;-80
2022/07/21 06:52:20;;;;;;;34.15;26.70;;;19.40;99.90;;;;;;6224312;22;20012;-80
2022/07/21 06:54:45;;;;;;;33.22;25.05;;;19.40;99.90;;;;;;6224390;22;20027;-80
2022/07/21 06:57:11;;;;;;;29.52;24.60;;;19.50;99.90;;;;;;6224270;22;20043;-81
2022/07/21 06:59:37;;;;;;;30.95;25.55;;;19.50;99.90;;;;;;6223987;22;20107;-81
2022/07/21 07:02:02;;;;;;;31.40;25.05;;;19.50;99.90;;;;;;6223583;22;20007;-81
2022/07/21 07:04:28;;;;;;;31.38;25.30;;;19.60;99.90;;;;;;6223925;22;20007;-80
2022/07/21 07:06:55;;;;;;;33.85;27.80;;;19.60;99.90;;;;;;6224458;22;20011;-81
2022/07/21 07:09:20;;;;;;;30.50;26.33;;;19.70;99.90;;;;;;6224155;22;20035;-80
2022/07/21 07:11:46;;;;;;;33.25;27.08;;;19.70;99.90;;;;;;6249641;22;20018;-80
2022/07/21 07:14:13;;;;;;;31.52;26.33;;;19.80;99.90;;;;;;6225235;22;20039;-81
2022/07/21 07:16:40;;;;;;;34.90;27.17;;;20.00;99.90;;;;;;6224161;22;20022;-81
2022/07/21 07:19:05;;;;;;;31.73;26.15;;;20.10;99.90;;;;;;6249597;22;20012;-80
2022/07/21 07:21:31;;;;;;;34.08;27.30;;;20.20;99.90;;;;;;6250267;22;20007;-80
2022/07/21 07:23:56;;;;;;;33.08;27.27;;;20.20;99.90;;;;;;6227633;22;20008;-80
2022/07/21 07:26:22;;;;;;;37.17;30.27;;;20.20;99.90;;;;;;6252789;22;20011;-81
2022/07/21 07:28:48;;;;;;;38.05;31.17;;;20.20;99.90;;;;;;6252608;22;20012;-80
2022/07/21 07:31:13;;;;;;;34.90;29.58;;;20.20;99.90;;;;;;6228681;22;20456;-81
2022/07/21 07:33:39;;;;;;;39.90;30.63;;;20.20;99.90;;;;;;6253829;22;20017;-80
2022/07/21 07:36:05;;;;;;;38.03;30.58;;;20.20;99.90;;;;;;6229037;22;20075;-81
2022/07/21 07:38:30;;;;;;;38.45;31.63;;;20.20;99.90;;;;;;6227044;22;20015;-80
2022/07/21 07:40:56;;;;;;;36.25;31.25;;;20.30;99.90;;;;;;6226163;22;20340;-81
2022/07/21 07:43:21;;;;;;;38.47;31.75;;;20.40;99.90;;;;;;6252880;22;20348;-80
2022/07/21 07:45:47;;;;;;;37.67;32.28;;;20.40;99.90;;;;;;6252536;22;20018;-79
2022/07/21 07:48:13;;;;;;;37.33;30.08;;;20.50;99.90;;;;;;6253334;22;20004;-80
2022/07/21 07:50:38;;;;;;;39.55;32.30;;;20.80;99.90;;;;;;6230009;22;20015;-80
2022/07/21 07:53:04;;;;;;;35.88;30.98;;;21.10;99.90;;;;;;6254669;22;20007;-80
2022/07/21 07:55:29;;;;;;;32.25;28.42;;;21.50;99.90;;;;;;6231805;22;20016;-81
2022/07/21 07:57:55;;;;;;;35.65;30.25;;;21.80;99.90;;;;;;6231663;22;20043;-81
2022/07/21 08:00:21;;;;;;;34.17;29.30;;;22.00;99.90;;;;;;6231880;22;20008;-80
2022/07/21 08:02:47;;;;;;;37.28;29.88;;;22.20;99.90;;;;;;6231733;22;20094;-81
2022/07/21 08:05:12;;;;;;;33.70;27.08;;;22.50;99.90;;;;;;6232968;22;20019;-81
2022/07/21 08:07:39;;;;;;;33.35;26.73;;;22.50;99.90;;;;;;6232603;22;20011;-81
2022/07/21 08:10:12;;;;;;;29.27;25.35;;;22.50;99.90;;;;;;6232145;22;20016;-81
2022/07/21 08:12:38;;;;;;;29.73;25.77;;;22.50;99.90;;;;;;6232061;22;20474;-80
2022/07/21 08:15:04;;;;;;;27.92;24.05;;;22.70;99.90;;;;;;6254905;22;20054;-81
2022/07/21 08:17:30;;;;;;;28.58;24.42;;;23.20;99.90;;;;;;6250533;22;20019;-80
2022/07/21 08:19:56;;;;;;;27.55;24.15;;;23.70;99.90;;;;;;6225085;22;20008;-81
2022/07/21 08:22:21;;;;;;;28.45;24.83;;;23.80;99.90;;;;;;6224035;22;20479;-81
2022/07/21 08:24:47;;;;;;;27.20;23.65;;;23.90;99.90;;;;;;6224984;22;20011;-81
2022/07/21 08:27:13;;;;;;;26.23;23.42;;;23.90;99.90;;;;;;6225119;22;20014;-81
2022/07/21 08:29:39;;;;;;;26.63;23.73;;;23.90;99.90;;;;;;6225367;22;20098;-81
2022/07/21 08:32:05;;;;;;;28.50;25.13;;;24.00;99.90;;;;;;6224842;22;20012;-81
2022/07/21 08:34:31;;;;;;;33.42;27.80;;;24.00;99.90;;;;;;6251121;22;20325;-80
2022/07/21 08:36:57;;;;;;;35.00;28.20;;;23.90;99.90;;;;;;6225735;22;20019;-81
2022/07/21 08:39:22;;;;;;;33.88;27.88;;;23.70;99.90;;;;;;6250918;22;20019;-81
2022/07/21 08:41:49;;;;;;;35.70;28.52;;;23.40;99.90;;;;;;6226615;22;20012;-81
2022/07/21 08:44:14;;;;;;;31.77;28.27;;;23.00;99.90;;;;;;6226765;22;20010;-80
2022/07/21 08:46:48;;;;;;;33.38;26.77;;;22.80;99.90;;;;;;6227218;22;20090;-81
2022/07/21 08:49:14;;;;;;;30.77;26.88;;;22.60;99.90;;;;;;6225688;22;20058;-80
2022/07/21 08:51:39;;;;;;;34.05;27.77;;;22.40;99.90;;;;;;6225613;22;20070;-81
2022/07/21 08:54:05;;;;;;;31.30;27.35;;;22.20;99.90;;;;;;6250586;22;20014;-80
2022/07/21 08:56:31;;;;;;;30.95;26.63;;;22.20;99.90;;;;;;6227181;22;20003;-81
2022/07/21 08:58:56;;;;;;;32.72;28.25;;;22.20;99.90;;;;;;6251520;22;20519;-81
2022/07/21 09:01:23;;;;;;;31.40;26.55;;;22.30;99.90;;;;;;6226972;22;20456;-81
2022/07/21 09:03:53;;;;;;;29.55;25.55;;;22.30;99.90;;;;;;6225936;22;20222;-81
2022/07/21 09:06:19;;;;;;;31.17;25.40;;;22.40;99.90;;;;;;6226396;22;20463;-80
2022/07/21 09:08:50;;;;;;;31.33;26.40;;;22.50;99.90;;;;;;6225933;22;20062;-81
2022/07/21 09:11:23;;;;;;;34.28;25.98;;;22.60;99.90;;;;;;6251512;22;20012;-81
2022/07/21 09:14:04;;;;;;;26.27;23.23;;;22.80;99.90;;;;;;6226354;22;20011;-80
2022/07/21 09:16:35;;;;;;;26.85;23.95;;;23.00;99.90;;;;;;6226068;22;20022;-80
2022/07/21 09:19:01;;;;;;;25.52;22.42;;;23.10;99.90;;;;;;6226135;22;20018;-80
2022/07/21 09:21:28;;;;;;;25.80;21.70;;;23.20;99.90;;;;;;6225885;22;20019;-81
2022/07/21 09:24:19;;;;;;;24.70;21.98;;;23.20;99.90;;;;;;6225918;22;20012;-81
2022/07/21 09:27:03;;;;;;;26.90;23.70;;;23.10;99.90;;;;;;6227693;22;20008;-80
2022/07/21 09:29:41;;;;;;;27.60;24.67;;;22.90;99.90;;;;;;6228654;22;20034;-80
2022/07/21 09:32:16;;;;;;;26.17;23.23;;;22.70;99.90;;;;;;6228846;22;20022;-80
2022/07/21 09:34:42;;;;;;;29.92;24.33;;;22.50;99.90;;;;;;6229130;22;20012;-80
2022/07/21 09:37:08;;;;;;;27.73;23.15;;;22.30;99.90;;;;;;6254942;22;20016;-80
2022/07/21 09:39:47;;;;;;;27.38;22.85;;;22.20;99.90;;;;;;6229862;22;20318;-79
2022/07/21 09:42:26;;;;;;;27.90;23.05;;;22.00;99.90;;;;;;6230807;22;20067;-79
2022/07/21 09:44:55;;;;;;;29.90;24.15;;;21.80;99.90;;;;;;6231698;22;20008;-80
2022/07/21 09:47:23;;;;;;;26.55;22.95;;;21.60;99.90;;;;;;6231363;22;20539;-79
2022/07/21 09:49:50;;;;;;;26.98;22.92;;;21.50;99.90;;;;;;6232793;22;20016;-80
2022/07/21 09:52:29;;;;;;;28.33;25.13;;;21.40;99.90;;;;;;6256178;22;20038;-80
2022/07/21 09:54:57;;;;;;;27.67;23.10;;;21.40;99.90;;;;;;6232321;22;20659;-80
2022/07/21 09:57:22;;;;;;;26.23;23.02;;;21.40;99.90;;;;;;6258617;22;20098;-80
2022/07/21 09:59:49;;;;;;;27.42;23.83;;;21.40;99.90;;;;;;6232514;22;20004;-80
2022/07/21 10:02:27;;;;;;;31.05;24.33;;;21.30;99.90;;;;;;6232449;22;20437;-79
2022/07/21 10:05:11;;;;;;;27.50;22.65;;;21.30;99.90;;;;;;6233816;22;20011;-79
2022/07/21 10:07:40;;;;;;;24.65;21.95;;;21.30;99.90;;;;;;6259596;22;20423;-79
2022/07/21 10:10:07;;;;;;;25.95;22.23;;;21.30;99.90;;;;;;6227330;22;20022;-79
2022/07/21 10:12:33;;;;;;;26.75;22.40;;;21.30;99.90;;;;;;6223795;22;20107;-80
2022/07/21 10:14:58;;;;;;;30.58;24.02;;;21.30;99.90;;;;;;6224257;22;20011;-79
2022/07/21 10:17:25;;;;;;;34.40;27.50;;;21.40;99.90;;;;;;6249495;22;20057;-79
2022/07/21 10:20:05;;;;;;;35.35;28.92;;;21.40;99.90;;;;;;6249283;22;20011;-79
2022/07/21 10:23:01;;;;;;;38.38;30.30;;;21.50;99.90;;;;;;6249122;22;20055;-79
2022/07/21 10:25:27;;;;;;;35.33;29.20;;;21.50;99.90;;;;;;6248464;22;20012;-79
2022/07/21 10:28:27;;;;;;;36.50;32.40;;;21.50;99.90;;;;;;6249702;22;20402;-79
2022/07/21 10:30:57;;;;;;;35.65;31.77;;;21.40;99.90;;;;;;6197325;22;20012;-79
2022/07/21 10:33:46;;;;;;;36.22;30.58;;;21.40;99.90;;;;;;6223679;22;20436;-79
2022/07/21 10:36:34;;;;;;;38.05;29.60;;;21.40;99.90;;;;;;6225925;22;20012;-78
2022/07/21 10:39:06;;;;;;;36.00;28.42;;;21.40;99.90;;;;;;6223257;22;20333;-80
2022/07/21 10:41:53;;;;;;;32.08;27.27;;;21.40;99.90;;;;;;6223852;22;20057;-79
2022/07/21 10:44:27;;;;;;;29.90;26.45;;;21.40;99.90;;;;;;6249353;22;20019;-80
2022/07/21 10:47:06;;;;;;;30.20;25.38;;;21.50;99.90;;;;;;6223974;22;20015;-79
2022/07/21 10:49:50;;;;;;;28.83;25.48;;;21.50;99.90;;;;;;6249188;22;20016;-79
2022/07/21 10:52:34;;;;;;;28.10;24.60;;;21.60;99.90;;;;;;6223498;22;20015;-79
2022/07/21 10:55:25;;;;;;;33.25;26.50;;;21.60;99.90;;;;;;6223727;22;20026;-79
2022/07/21 10:58:14;;;;;;;24.70;21.35;;;21.70;99.90;;;;;;6249147;22;20011;-79
2022/07/21 11:00:54;;;;;;;23.42;20.98;;;21.70;99.90;;;;;;6249090;22;20015;-78
2022/07/21 11:03:26;;;;;;;23.90;19.55;;;21.70;99.90;;;;;;6248867;22;20129;-79
2022/07/21 11:06:19;;;;;;;22.52;19.88;;;21.60;99.90;;;;;;6249086;22;20010;-79
2022/07/21 11:09:02;;;;;;;24.13;20.98;;;21.60;99.90;;;;;;6223476;22;20066;-79
2022/07/21 11:11:30;;;;;;;23.70;21.20;;;21.60;99.90;;;;;;6248926;22;20011;-78
2022/07/21 11:14:14;;;;;;;23.65;20.25;;;21.70;99.90;;;;;;6248719;22;20012;-78
2022/07/21 11:16:43;;;;;;;25.55;21.83;;;21.90;99.90;;;;;;6248895;22;20470;-79
2022/07/21 11:19:27;;;;;;;25.88;21.67;;;22.10;99.90;;;;;;6223439;22;20016;-79
2022/07/21 11:21:54;;;;;;;23.80;21.17;;;22.30;99.90;;;;;;6248602;22;20019;-80
2022/07/21 11:24:23;;;;;;;23.95;21.40;;;22.50;99.90;;;;;;6223567;22;20011;-78
2022/07/21 11:27:07;;;;;;;21.73;19.02;;;22.60;99.90;;;;;;6223775;22;20294;-79
2022/07/21 11:29:35;;;;;;;23.15;20.65;;;22.50;99.90;;;;;;6248666;22;20008;-78
2022/07/21 11:32:01;;;;;;;24.45;21.80;;;22.30;99.90;;;;;;6223254;22;20451;-79
2022/07/21 11:34:47;;;;;;;23.70;20.90;;;22.20;99.90;;;;;;6248664;22;20420;-78
2022/07/21 11:37:16;;;;;;;25.27;22.40;;;22.00;99.90;;;;;;6248778;22;20043;-79
2022/07/21 11:39:42;;;;;;;24.80;22.13;;;21.90;99.90;;;;;;6223160;22;20019;-79
2022/07/21 11:42:11;;;;;;;25.48;22.55;;;21.70;99.90;;;;;;6223170;22;20011;-79
2022/07/21 11:44:37;;;;;;;26.27;22.92;;;21.70;99.90;;;;;;6248713;22;20341;-79
2022/07/21 11:47:05;;;;;;;24.88;22.25;;;21.60;99.90;;;;;;6248692;22;20086;-78
2022/07/21 11:49:31;;;;;;;25.60;22.58;;;21.60;99.90;;;;;;6248379;22;20007;-79
2022/07/21 11:52:03;;;;;;;26.85;22.80;;;21.60;99.90;;;;;;6223087;22;20010;-79
2022/07/21 11:54:36;;;;;;;26.53;23.10;;;21.50;99.90;;;;;;6223199;22;20018;-79
2022/07/21 11:57:06;;;;;;;;;;;21.30;99.90;;;;;;6249034;22;20012;-79
2022/07/21 11:59:33;;;;;;;26.35;22.35;;;21.20;99.90;;;;;;6248311;22;19915;-79
2022/07/21 12:02:06;;;;;;;27.92;24.20;;;21.00;99.90;;;;;;6249132;22;20439;-80
2022/07/21 12:04:35;;;;;;;29.52;24.25;;;20.90;99.90;;;;;;6249177;22;20011;-81
2022/07/21 12:07:02;;;;;;;29.33;24.38;;;20.80;99.90;;;;;;6249646;22;20012;-81
2022/07/21 12:09:28;;;;;;;27.55;22.95;;;20.60;99.90;;;;;;6249274;22;20007;-80
2022/07/21 12:11:54;;;;;;;26.88;23.20;;;20.40;99.90;;;;;;6223949;22;20380;-79
2022/07/21 12:14:20;;;;;;;27.38;23.05;;;20.30;99.90;;;;;;6249157;22;20015;-80
2022/07/21 12:16:50;;;;;;;26.77;22.83;;;20.20;99.90;;;;;;6223638;22;20461;-80
2022/07/21 12:19:17;;;;;;;29.33;23.00;;;20.10;99.90;;;;;;6249317;22;20008;-80
2022/07/21 12:21:51;;;;;;;26.55;22.45;;;20.00;99.90;;;;;;6223733;22;20007;-82
2022/07/21 12:24:19;;;;;;;29.52;22.65;;;20.00;99.90;;;;;;6223705;22;20447;-81
2022/07/21 12:26:45;;;;;;;27.23;23.02;;;20.00;99.90;;;;;;6223687;22;20325;-80
2022/07/21 12:29:29;;;;;;;30.55;23.25;;;20.00;99.90;;;;;;6248834;22;20091;-80
2022/07/21 12:31:55;;;;;;;27.17;21.67;;;20.00;99.90;;;;;;6223435;22;20007;-80
2022/07/21 12:34:22;;;;;;;28.55;21.90;;;20.00;99.90;;;;;;6223757;22;20019;-80